Balsa 87 — 3EWS — position and weather

sailwx.info

Track history (hours):
 
Tides and Currents Weather Stations Pressure Air Temp Water Temp Dewpoint Dewpoint Depression Visibility Wind Speed Wind Dir Waves Ship Positions

Balsa 87

Last reported at 2018-May-16 05:56 UTC. Time now 2018-Jun-20 07:19 UTC.
Position N 25°38' W 079°23'.
Warning: this ship's position is 35 days out of date.

Length 106 m; draft 6.9 m.

Type: Ship. MMSI: 373662000.

Date/timePositionNaut miles runAvg speedWind from/ knotsBaromVisibWave heightAir tempDewpointWater temp
2018-May-16 05:56N 25°38' W 079°23'4 9.9
2018-May-16 05:30N 25°43' W 079°23'610.1
2018-May-16 04:56N 25°48' W 079°23'410.2
2018-May-16 04:30N 25°53' W 079°23'1110.4
2018-May-16 03:27N 26°04' W 079°23'510.3
2018-May-16 03:00N 26°08' W 079°23'510.0
2018-May-16 02:30N 26°13' W 079°23'472 9.4
2018-May-14 00:19N 33°06' W 074°60'9210.2
2018-May-13 15:14N 34°38' W 075°00'2 8.8
2018-May-13 15:00N 34°40' W 075°00'54 8.8
2018-May-13 08:50N 35°34' W 074°60'511.0
2018-May-13 08:23N 35°39' W 074°60'411.1
2018-May-13 08:00N 35°43' W 075°00'3710.4
2018-May-13 04:24N 36°20' W 075°11'511.3
2018-May-13 04:00N 36°23' W 075°15'811.4
2018-May-13 03:20N 36°28' W 075°22'411.3
2018-May-13 03:00N 36°31' W 075°25'2910.7
2018-May-13 00:18N 36°51' W 075°51'310.1
2018-May-13 00:00N 36°53' W 075°54'5 9.9
2018-May-12 23:30N 36°56' W 075°59'5 9.9
2018-May-12 23:00N 36°58' W 076°05'510.3
2018-May-12 22:30N 36°60' W 076°11'7 9.2
2018-May-12 21:42N 36°58' W 076°20'2 9.3
2018-May-12 21:30N 36°56' W 076°20'5 9.0
2018-May-12 21:00N 36°52' W 076°19'3 5.5
2018-May-12 20:30N 36°50' W 076°18'1 2.7
2018-May-12 19:58N 36°48' W 076°17'0 0.0
2018-May-12 19:28N 36°48' W 076°17'0 0.0
2018-May-12 18:58N 36°48' W 076°17'0 0.0
2018-May-12 18:28N 36°48' W 076°17'0 0.0
2018-May-12 17:58N 36°48' W 076°17'0 0.0
2018-May-12 17:28N 36°48' W 076°17'0 0.0
2018-May-12 16:58N 36°48' W 076°17'0 0.0
2018-May-12 16:28N 36°48' W 076°17'0 0.0
2018-May-12 15:58N 36°48' W 076°17'0 0.0
2018-May-12 15:28N 36°48' W 076°17'0 0.0
2018-May-12 14:58N 36°48' W 076°17'0 0.0
2018-May-12 14:28N 36°48' W 076°17'0 0.0
2018-May-12 13:58N 36°48' W 076°17'0 0.0
2018-May-12 13:28N 36°48' W 076°17'0 0.0
2018-May-12 12:58N 36°48' W 076°17'0 0.0
2018-May-12 12:28N 36°48' W 076°17'0 0.0
2018-May-12 11:58N 36°48' W 076°17'0 0.0
2018-May-12 11:28N 36°48' W 076°17'0 0.0
2018-May-12 10:58N 36°48' W 076°17'0 0.0
2018-May-12 10:25N 36°48' W 076°17'0 0.0
2018-May-12 09:58N 36°48' W 076°17'0 0.0
2018-May-12 09:28N 36°48' W 076°17'0 0.0
2018-May-12 08:58N 36°48' W 076°17'0 0.0
2018-May-12 08:25N 36°48' W 076°17'0 0.0
2018-May-12 07:58N 36°48' W 076°17'0 0.0
2018-May-12 07:28N 36°48' W 076°17'0 0.0
2018-May-12 06:58N 36°48' W 076°17'0 0.0
2018-May-12 06:28N 36°48' W 076°17'1 1.9
2018-May-12 06:00N 36°49' W 076°17'3 5.8
2018-May-12 05:30N 36°52' W 076°19'5 9.6
2018-May-12 05:00N 36°56' W 076°20'2 0.4
2018-May-12 00:22N 36°56' W 076°23'0 0.0
2018-May-11 23:49N 36°56' W 076°23'0 0.0
2018-May-11 08:35N 36°56' W 076°22'110.1
2018-May-11 08:30N 36°57' W 076°22'1210.5
2018-May-11 07:21N 36°59' W 076°07'411.1
2018-May-11 07:00N 36°58' W 076°02'510.0
2018-May-11 06:30N 36°56' W 075°56'510.6
2018-May-11 06:00N 36°52' W 075°51'13213.0
2018-May-10 19:51N 34°45' W 075°09'8413.3
2018-May-10 13:35N 33°40' W 076°13'  
2018-May-06 22:56N 31°07' W 081°29'4 8.5
2018-May-06 22:27N 31°08' W 081°24'510.3
2018-May-06 22:00N 31°06' W 081°19'610.9
2018-May-06 21:30N 31°02' W 081°14'6 9.7
2018-May-06 20:55N 30°59' W 081°09'  
Track history (hours):
 
Tides and Currents Weather Stations Pressure Air Temp Water Temp Dewpoint Dewpoint Depression Visibility Wind Speed Wind Dir Waves Ship Positions

Balsa 87

Last reported at 2018-May-16 05:56 UTC. Time now 2018-Jun-20 07:19 UTC.
Position N 25°38' W 079°23'.
Warning: this ship's position is 35 days out of date.

Length 106 m; draft 6.9 m.

Type: Ship. MMSI: 373662000.

Date/timePositionNaut miles runAvg speedWind from/ knotsBaromVisibWave heightAir tempDewpointWater temp
2018-May-16 05:56N 25°38' W 079°23'4 9.9
2018-May-16 05:30N 25°43' W 079°23'610.1
2018-May-16 04:56N 25°48' W 079°23'410.2
2018-May-16 04:30N 25°53' W 079°23'1110.4
2018-May-16 03:27N 26°04' W 079°23'510.3
2018-May-16 03:00N 26°08' W 079°23'510.0
2018-May-16 02:30N 26°13' W 079°23'472 9.4
2018-May-14 00:19N 33°06' W 074°60'9210.2
2018-May-13 15:14N 34°38' W 075°00'2 8.8
2018-May-13 15:00N 34°40' W 075°00'54 8.8
2018-May-13 08:50N 35°34' W 074°60'511.0
2018-May-13 08:23N 35°39' W 074°60'411.1
2018-May-13 08:00N 35°43' W 075°00'3710.4
2018-May-13 04:24N 36°20' W 075°11'511.3
2018-May-13 04:00N 36°23' W 075°15'811.4
2018-May-13 03:20N 36°28' W 075°22'411.3
2018-May-13 03:00N 36°31' W 075°25'2910.7
2018-May-13 00:18N 36°51' W 075°51'310.1
2018-May-13 00:00N 36°53' W 075°54'5 9.9
2018-May-12 23:30N 36°56' W 075°59'5 9.9
2018-May-12 23:00N 36°58' W 076°05'510.3
2018-May-12 22:30N 36°60' W 076°11'7 9.2
2018-May-12 21:42N 36°58' W 076°20'2 9.3
2018-May-12 21:30N 36°56' W 076°20'5 9.0
2018-May-12 21:00N 36°52' W 076°19'3 5.5
2018-May-12 20:30N 36°50' W 076°18'1 2.7
2018-May-12 19:58N 36°48' W 076°17'0 0.0
2018-May-12 19:28N 36°48' W 076°17'0 0.0
2018-May-12 18:58N 36°48' W 076°17'0 0.0
2018-May-12 18:28N 36°48' W 076°17'0 0.0
2018-May-12 17:58N 36°48' W 076°17'0 0.0
2018-May-12 17:28N 36°48' W 076°17'0 0.0
2018-May-12 16:58N 36°48' W 076°17'0 0.0
2018-May-12 16:28N 36°48' W 076°17'0 0.0
2018-May-12 15:58N 36°48' W 076°17'0 0.0
2018-May-12 15:28N 36°48' W 076°17'0 0.0
2018-May-12 14:58N 36°48' W 076°17'0 0.0
2018-May-12 14:28N 36°48' W 076°17'0 0.0
2018-May-12 13:58N 36°48' W 076°17'0 0.0
2018-May-12 13:28N 36°48' W 076°17'0 0.0
2018-May-12 12:58N 36°48' W 076°17'0 0.0
2018-May-12 12:28N 36°48' W 076°17'0 0.0
2018-May-12 11:58N 36°48' W 076°17'0 0.0
2018-May-12 11:28N 36°48' W 076°17'0 0.0
2018-May-12 10:58N 36°48' W 076°17'0 0.0
2018-May-12 10:25N 36°48' W 076°17'0 0.0
2018-May-12 09:58N 36°48' W 076°17'0 0.0
2018-May-12 09:28N 36°48' W 076°17'0 0.0
2018-May-12 08:58N 36°48' W 076°17'0 0.0
2018-May-12 08:25N 36°48' W 076°17'0 0.0
2018-May-12 07:58N 36°48' W 076°17'0 0.0
2018-May-12 07:28N 36°48' W 076°17'0 0.0
2018-May-12 06:58N 36°48' W 076°17'0 0.0
2018-May-12 06:28N 36°48' W 076°17'1 1.9
2018-May-12 06:00N 36°49' W 076°17'3 5.8
2018-May-12 05:30N 36°52' W 076°19'5 9.6
2018-May-12 05:00N 36°56' W 076°20'2 0.4
2018-May-12 00:22N 36°56' W 076°23'0 0.0
2018-May-11 23:49N 36°56' W 076°23'0 0.0
2018-May-11 08:35N 36°56' W 076°22'110.1
2018-May-11 08:30N 36°57' W 076°22'1210.5
2018-May-11 07:21N 36°59' W 076°07'411.1
2018-May-11 07:00N 36°58' W 076°02'510.0
2018-May-11 06:30N 36°56' W 075°56'510.6
2018-May-11 06:00N 36°52' W 075°51'13213.0
2018-May-10 19:51N 34°45' W 075°09'8413.3
2018-May-10 13:35N 33°40' W 076°13'  
2018-May-06 22:56N 31°07' W 081°29'4 8.5
2018-May-06 22:27N 31°08' W 081°24'510.3
2018-May-06 22:00N 31°06' W 081°19'610.9
2018-May-06 21:30N 31°02' W 081°14'6 9.7
2018-May-06 20:55N 30°59' W 081°09'  

Dump ship's entire track history